Terminal Aerodrome Forecast
Issued by NWS

Current Version | Previous Version | Text Only | Print | Product List | Glossary On
Versions: 1 2 3 4 5 6 7 8 9 10 11 12 13 14 15 16 17 18 19 20 21 22 23 24 25 26 27 28 29 30 31
000
FTUS41 KCTP 260314 AAA
TAFJST
TAF AMD
KJST 260314Z 2603/2624 29004KT P6SM SKC
     FM260500 VRB02KT P6SM BKN070 OVC150
     FM261400 24007G14KT P6SM BKN040 OVC070
     FM261700 24008KT P6SM VCSH BKN025
     FM262100 24008KT 4SM -SHRA BR OVC025=

USA.gov is the U.S. government's official web portal to all federal, state and local government web resources and services.